sensor_id;sensor_type;location;lat;lon;timestamp;temperature;humidity
30186;DHT22;31152;49.190;8.122;2023-03-01T00:01:28;1.00;99.30
30186;DHT22;31152;49.190;8.122;2023-03-01T00:03:56;1.00;99.50
30186;DHT22;31152;49.190;8.122;2023-03-01T00:06:26;1.00;99.60
30186;DHT22;31152;49.190;8.122;2023-03-01T00:08:56;1.00;99.80
30186;DHT22;31152;49.190;8.122;2023-03-01T00:11:25;1.00;99.90
30186;DHT22;31152;49.190;8.122;2023-03-01T00:13:55;1.00;99.90
30186;DHT22;31152;49.190;8.122;2023-03-01T00:16:31;0.90;99.90
30186;DHT22;31152;49.190;8.122;2023-03-01T00:19:00;0.90;99.90
30186;DHT22;31152;49.190;8.122;2023-03-01T00:21:27;0.90;99.90
30186;DHT22;31152;49.190;8.122;2023-03-01T00:23:54;0.90;99.90
30186;DHT22;31152;49.190;8.122;2023-03-01T00:26:22;0.90;99.90
30186;DHT22;31152;49.190;8.122;2023-03-01T00:28:52;0.90;99.90
30186;DHT22;31152;49.190;8.122;2023-03-01T00:31:21;0.90;99.90
30186;DHT22;31152;49.190;8.122;2023-03-01T00:33:51;0.80;99.90
30186;DHT22;31152;49.190;8.122;2023-03-01T00:36:18;0.80;99.90
30186;DHT22;31152;49.190;8.122;2023-03-01T00:38:45;0.90;99.90
30186;DHT22;31152;49.190;8.122;2023-03-01T00:41:17;0.80;99.90
30186;DHT22;31152;49.190;8.122;2023-03-01T00:43:44;0.80;99.90
30186;DHT22;31152;49.190;8.122;2023-03-01T00:46:17;0.80;99.90
30186;DHT22;31152;49.190;8.122;2023-03-01T00:48:44;0.80;99.90
30186;DHT22;31152;49.190;8.122;2023-03-01T00:53:43;0.80;99.90
30186;DHT22;31152;49.190;8.122;2023-03-01T00:56:12;0.80;99.90
30186;DHT22;31152;49.190;8.122;2023-03-01T00:58:39;0.70;99.90
30186;DHT22;31152;49.190;8.122;2023-03-01T01:01:11;0.80;99.90
30186;DHT22;31152;49.190;8.122;2023-03-01T01:03:48;0.70;99.90
30186;DHT22;31152;49.190;8.122;2023-03-01T01:06:21;0.70;99.90
30186;DHT22;31152;49.190;8.122;2023-03-01T01:08:50;0.70;99.90
30186;DHT22;31152;49.190;8.122;2023-03-01T01:11:18;0.60;99.90
30186;DHT22;31152;49.190;8.122;2023-03-01T01:13:46;0.60;99.90
30186;DHT22;31152;49.190;8.122;2023-03-01T01:16:14;0.60;99.90
30186;DHT22;31152;49.190;8.122;2023-03-01T01:18:41;0.60;99.90
30186;DHT22;31152;49.190;8.122;2023-03-01T01:21:12;0.60;99.90
30186;DHT22;31152;49.190;8.122;2023-03-01T01:23:40;0.50;99.90
30186;DHT22;31152;49.190;8.122;2023-03-01T01:26:09;0.50;99.90
30186;DHT22;31152;49.190;8.122;2023-03-01T01:28:36;0.50;99.90
30186;DHT22;31152;49.190;8.122;2023-03-01T01:31:06;0.50;99.90
30186;DHT22;31152;49.190;8.122;2023-03-01T01:33:33;0.50;99.90
30186;DHT22;31152;49.190;8.122;2023-03-01T01:36:00;0.50;99.90
30186;DHT22;31152;49.190;8.122;2023-03-01T01:38:29;0.50;99.90
30186;DHT22;31152;49.190;8.122;2023-03-01T01:40:56;0.50;99.90
30186;DHT22;31152;49.190;8.122;2023-03-01T01:45:56;0.40;99.90
30186;DHT22;31152;49.190;8.122;2023-03-01T01:48:29;0.50;99.90
30186;DHT22;31152;49.190;8.122;2023-03-01T01:51:13;0.40;99.90
30186;DHT22;31152;49.190;8.122;2023-03-01T01:53:40;0.40;99.90
30186;DHT22;31152;49.190;8.122;2023-03-01T01:56:11;0.40;99.90
30186;DHT22;31152;49.190;8.122;2023-03-01T01:58:39;0.40;99.90
30186;DHT22;31152;49.190;8.122;2023-03-01T02:01:07;0.40;99.90
30186;DHT22;31152;49.190;8.122;2023-03-01T02:03:37;0.30;99.90
30186;DHT22;31152;49.190;8.122;2023-03-01T02:06:29;0.30;99.90
30186;DHT22;31152;49.190;8.122;2023-03-01T02:09:10;0.30;99.90
30186;DHT22;31152;49.190;8.122;2023-03-01T02:11:40;0.30;99.90
30186;DHT22;31152;49.190;8.122;2023-03-01T02:14:07;0.30;99.90
30186;DHT22;31152;49.190;8.122;2023-03-01T02:16:34;0.30;99.90
30186;DHT22;31152;49.190;8.122;2023-03-01T02:19:05;0.20;99.90
30186;DHT22;31152;49.190;8.122;2023-03-01T02:21:46;0.20;99.90
30186;DHT22;31152;49.190;8.122;2023-03-01T02:24:32;0.20;99.90
30186;DHT22;31152;49.190;8.122;2023-03-01T02:27:02;0.20;99.90
30186;DHT22;31152;49.190;8.122;2023-03-01T02:29:31;0.20;99.90
30186;DHT22;31152;49.190;8.122;2023-03-01T02:32:02;0.20;99.90
30186;DHT22;31152;49.190;8.122;2023-03-01T02:34:33;0.20;99.90
30186;DHT22;31152;49.190;8.122;2023-03-01T02:37:09;0.30;99.90
30186;DHT22;31152;49.190;8.122;2023-03-01T02:39:52;0.20;99.90
30186;DHT22;31152;49.190;8.122;2023-03-01T02:42:28;0.20;99.90
30186;DHT22;31152;49.190;8.122;2023-03-01T02:44:57;0.20;99.90
30186;DHT22;31152;49.190;8.122;2023-03-01T02:47:23;0.20;99.90
30186;DHT22;31152;49.190;8.122;2023-03-01T02:49:50;0.20;99.90
30186;DHT22;31152;49.190;8.122;2023-03-01T02:52:28;0.20;99.90
30186;DHT22;31152;49.190;8.122;2023-03-01T02:55:12;0.20;99.90
30186;DHT22;31152;49.190;8.122;2023-03-01T02:57:43;0.20;99.90
30186;DHT22;31152;49.190;8.122;2023-03-01T03:00:13;0.20;99.90
30186;DHT22;31152;49.190;8.122;2023-03-01T03:02:51;0.10;99.90
30186;DHT22;31152;49.190;8.122;2023-03-01T03:05:26;0.20;99.90
30186;DHT22;31152;49.190;8.122;2023-03-01T03:07:54;0.10;99.90
30186;DHT22;31152;49.190;8.122;2023-03-01T03:10:26;0.10;99.90
30186;DHT22;31152;49.190;8.122;2023-03-01T03:13:05;0.10;99.90
30186;DHT22;31152;49.190;8.122;2023-03-01T03:15:32;0.10;99.90
30186;DHT22;31152;49.190;8.122;2023-03-01T03:18:06;0.20;99.90
30186;DHT22;31152;49.190;8.122;2023-03-01T03:20:35;0.20;99.90
30186;DHT22;31152;49.190;8.122;2023-03-01T03:23:02;0.20;99.90
30186;DHT22;31152;49.190;8.122;2023-03-01T03:25:29;0.20;99.90
30186;DHT22;31152;49.190;8.122;2023-03-01T03:27:56;0.20;99.90
30186;DHT22;31152;49.190;8.122;2023-03-01T03:30:29;0.20;99.90
30186;DHT22;31152;49.190;8.122;2023-03-01T03:32:57;0.10;99.90
30186;DHT22;31152;49.190;8.122;2023-03-01T03:35:32;0.10;99.90
30186;DHT22;31152;49.190;8.122;2023-03-01T03:38:08;0.10;99.90
30186;DHT22;31152;49.190;8.122;2023-03-01T03:40:46;0.10;99.90
30186;DHT22;31152;49.190;8.122;2023-03-01T03:43:16;0.10;99.90
30186;DHT22;31152;49.190;8.122;2023-03-01T03:45:45;0.10;99.90
30186;DHT22;31152;49.190;8.122;2023-03-01T03:48:12;0.10;99.90
30186;DHT22;31152;49.190;8.122;2023-03-01T03:50:40;0.10;99.90
30186;DHT22;31152;49.190;8.122;2023-03-01T03:53:11;0.10;99.90
30186;DHT22;31152;49.190;8.122;2023-03-01T03:55:40;0.00;99.90
30186;DHT22;31152;49.190;8.122;2023-03-01T03:58:09;0.00;99.90
30186;DHT22;31152;49.190;8.122;2023-03-01T04:00:40;0.00;99.90
30186;DHT22;31152;49.190;8.122;2023-03-01T04:03:08;0.00;99.90
30186;DHT22;31152;49.190;8.122;2023-03-01T04:05:38;0.00;99.90
30186;DHT22;31152;49.190;8.122;2023-03-01T04:08:08;0.00;99.90
30186;DHT22;31152;49.190;8.122;2023-03-01T04:10:39;0.00;99.90
30186;DHT22;31152;49.190;8.122;2023-03-01T04:13:09;0.00;99.90
30186;DHT22;31152;49.190;8.122;2023-03-01T04:15:37;-0.10;99.90
30186;DHT22;31152;49.190;8.122;2023-03-01T04:18:04;-0.10;99.90
30186;DHT22;31152;49.190;8.122;2023-03-01T04:20:34;-0.10;99.90
30186;DHT22;31152;49.190;8.122;2023-03-01T04:25:59;-0.10;99.90
30186;DHT22;31152;49.190;8.122;2023-03-01T04:28:31;-0.10;99.90
30186;DHT22;31152;49.190;8.122;2023-03-01T04:31:06;-0.20;99.90
30186;DHT22;31152;49.190;8.122;2023-03-01T04:33:42;-0.20;99.90
30186;DHT22;31152;49.190;8.122;2023-03-01T04:36:12;-0.20;99.90
30186;DHT22;31152;49.190;8.122;2023-03-01T04:38:42;-0.20;99.90
30186;DHT22;31152;49.190;8.122;2023-03-01T04:41:15;-0.20;99.90
30186;DHT22;31152;49.190;8.122;2023-03-01T04:43:44;-0.20;99.90
30186;DHT22;31152;49.190;8.122;2023-03-01T04:46:13;-0.20;99.90
30186;DHT22;31152;49.190;8.122;2023-03-01T04:48:42;-0.30;99.90
30186;DHT22;31152;49.190;8.122;2023-03-01T04:51:10;-0.30;99.90
30186;DHT22;31152;49.190;8.122;2023-03-01T04:53:40;-0.30;99.90
30186;DHT22;31152;49.190;8.122;2023-03-01T04:56:07;-0.30;99.90
30186;DHT22;31152;49.190;8.122;2023-03-01T04:58:34;-0.30;99.90
30186;DHT22;31152;49.190;8.122;2023-03-01T05:01:00;-0.30;99.90
30186;DHT22;31152;49.190;8.122;2023-03-01T05:03:27;-0.30;99.90
30186;DHT22;31152;49.190;8.122;2023-03-01T05:05:58;-0.30;99.90
30186;DHT22;31152;49.190;8.122;2023-03-01T05:08:26;-0.30;99.90
30186;DHT22;31152;49.190;8.122;2023-03-01T05:10:53;-0.30;99.90
30186;DHT22;31152;49.190;8.122;2023-03-01T05:13:21;-0.30;99.90
30186;DHT22;31152;49.190;8.122;2023-03-01T05:15:56;-0.30;99.90
30186;DHT22;31152;49.190;8.122;2023-03-01T05:18:28;-0.30;99.90
30186;DHT22;31152;49.190;8.122;2023-03-01T05:20:56;-0.30;99.90
30186;DHT22;31152;49.190;8.122;2023-03-01T05:23:24;-0.30;99.90
30186;DHT22;31152;49.190;8.122;2023-03-01T05:25:54;-0.30;99.90
30186;DHT22;31152;49.190;8.122;2023-03-01T05:28:21;-0.30;99.90
30186;DHT22;31152;49.190;8.122;2023-03-01T05:30:50;-0.30;99.90
30186;DHT22;31152;49.190;8.122;2023-03-01T05:33:18;-0.30;99.90
30186;DHT22;31152;49.190;8.122;2023-03-01T05:35:45;-0.30;99.90
30186;DHT22;31152;49.190;8.122;2023-03-01T05:38:12;-0.30;99.90
30186;DHT22;31152;49.190;8.122;2023-03-01T05:40:46;-0.20;99.90
30186;DHT22;31152;49.190;8.122;2023-03-01T05:43:17;-0.30;99.90
30186;DHT22;31152;49.190;8.122;2023-03-01T05:45:45;-0.30;99.90
30186;DHT22;31152;49.190;8.122;2023-03-01T05:48:12;-0.30;99.90
30186;DHT22;31152;49.190;8.122;2023-03-01T05:50:43;-0.30;99.90
30186;DHT22;31152;49.190;8.122;2023-03-01T05:53:16;-0.30;99.90
30186;DHT22;31152;49.190;8.122;2023-03-01T05:55:44;-0.30;99.90
30186;DHT22;31152;49.190;8.122;2023-03-01T05:58:16;-0.30;99.90
30186;DHT22;31152;49.190;8.122;2023-03-01T06:00:49;-0.30;99.90
30186;DHT22;31152;49.190;8.122;2023-03-01T06:03:17;-0.30;99.90
30186;DHT22;31152;49.190;8.122;2023-03-01T06:05:44;-0.30;99.90
30186;DHT22;31152;49.190;8.122;2023-03-01T06:08:12;-0.30;99.90
30186;DHT22;31152;49.190;8.122;2023-03-01T06:10:39;-0.30;99.90
30186;DHT22;31152;49.190;8.122;2023-03-01T06:13:06;-0.20;99.90
30186;DHT22;31152;49.190;8.122;2023-03-01T06:15:33;-0.20;99.90
30186;DHT22;31152;49.190;8.122;2023-03-01T06:18:00;-0.20;99.90
30186;DHT22;31152;49.190;8.122;2023-03-01T06:20:28;-0.20;99.90
30186;DHT22;31152;49.190;8.122;2023-03-01T06:22:57;-0.20;99.90
30186;DHT22;31152;49.190;8.122;2023-03-01T06:25:29;-0.20;99.90
30186;DHT22;31152;49.190;8.122;2023-03-01T06:27:56;-0.10;99.90
30186;DHT22;31152;49.190;8.122;2023-03-01T06:30:26;-0.20;99.90
30186;DHT22;31152;49.190;8.122;2023-03-01T06:32:53;-0.10;99.90
30186;DHT22;31152;49.190;8.122;2023-03-01T06:35:29;-0.20;99.90
30186;DHT22;31152;49.190;8.122;2023-03-01T06:37:58;-0.10;99.90
30186;DHT22;31152;49.190;8.122;2023-03-01T06:40:25;-0.10;99.90
30186;DHT22;31152;49.190;8.122;2023-03-01T06:42:52;-0.10;99.90
30186;DHT22;31152;49.190;8.122;2023-03-01T06:45:21;-0.10;99.90
30186;DHT22;31152;49.190;8.122;2023-03-01T06:47:48;-0.10;99.90
30186;DHT22;31152;49.190;8.122;2023-03-01T06:50:16;-0.10;99.90
30186;DHT22;31152;49.190;8.122;2023-03-01T06:52:43;0.00;99.90
30186;DHT22;31152;49.190;8.122;2023-03-01T06:55:12;0.00;99.90
30186;DHT22;31152;49.190;8.122;2023-03-01T06:57:42;0.00;99.90
30186;DHT22;31152;49.190;8.122;2023-03-01T07:00:09;0.00;99.90
30186;DHT22;31152;49.190;8.122;2023-03-01T07:02:41;0.10;99.90
30186;DHT22;31152;49.190;8.122;2023-03-01T07:05:08;0.10;99.90
30186;DHT22;31152;49.190;8.122;2023-03-01T07:07:35;0.20;99.90
30186;DHT22;31152;49.190;8.122;2023-03-01T07:10:01;0.20;99.90
30186;DHT22;31152;49.190;8.122;2023-03-01T07:12:31;0.30;99.90
30186;DHT22;31152;49.190;8.122;2023-03-01T07:14:59;0.30;99.90
30186;DHT22;31152;49.190;8.122;2023-03-01T07:17:25;0.40;99.90
30186;DHT22;31152;49.190;8.122;2023-03-01T07:19:54;0.50;99.90
30186;DHT22;31152;49.190;8.122;2023-03-01T07:22:21;0.60;99.90
30186;DHT22;31152;49.190;8.122;2023-03-01T07:24:50;0.80;99.90
30186;DHT22;31152;49.190;8.122;2023-03-01T07:27:17;0.90;99.90
30186;DHT22;31152;49.190;8.122;2023-03-01T07:29:48;1.10;99.90
30186;DHT22;31152;49.190;8.122;2023-03-01T07:32:14;1.30;99.90
30186;DHT22;31152;49.190;8.122;2023-03-01T07:34:44;1.50;99.90
30186;DHT22;31152;49.190;8.122;2023-03-01T07:37:11;1.60;99.90
30186;DHT22;31152;49.190;8.122;2023-03-01T07:39:37;1.70;99.90
30186;DHT22;31152;49.190;8.122;2023-03-01T07:42:04;1.80;99.90
30186;DHT22;31152;49.190;8.122;2023-03-01T07:44:33;1.90;99.90
30186;DHT22;31152;49.190;8.122;2023-03-01T07:47:01;2.00;99.90
30186;DHT22;31152;49.190;8.122;2023-03-01T07:49:30;2.10;99.90
30186;DHT22;31152;49.190;8.122;2023-03-01T07:51:56;2.20;99.90
30186;DHT22;31152;49.190;8.122;2023-03-01T07:54:23;2.20;99.90
30186;DHT22;31152;49.190;8.122;2023-03-01T07:56:50;2.40;99.90
30186;DHT22;31152;49.190;8.122;2023-03-01T07:59:21;2.50;99.90
30186;DHT22;31152;49.190;8.122;2023-03-01T08:01:48;2.60;99.90
30186;DHT22;31152;49.190;8.122;2023-03-01T08:04:14;2.70;99.90
30186;DHT22;31152;49.190;8.122;2023-03-01T08:06:41;2.80;99.90
30186;DHT22;31152;49.190;8.122;2023-03-01T08:09:08;2.90;99.90
30186;DHT22;31152;49.190;8.122;2023-03-01T08:11:35;3.00;99.90
30186;DHT22;31152;49.190;8.122;2023-03-01T08:14:06;3.10;99.90
30186;DHT22;31152;49.190;8.122;2023-03-01T08:16:32;3.30;99.90
30186;DHT22;31152;49.190;8.122;2023-03-01T08:19:06;3.40;99.90
30186;DHT22;31152;49.190;8.122;2023-03-01T08:21:38;3.40;99.90
30186;DHT22;31152;49.190;8.122;2023-03-01T08:24:06;3.50;99.90
30186;DHT22;31152;49.190;8.122;2023-03-01T08:26:33;3.60;99.90
30186;DHT22;31152;49.190;8.122;2023-03-01T08:29:03;3.70;99.90
30186;DHT22;31152;49.190;8.122;2023-03-01T08:31:33;3.90;99.90
30186;DHT22;31152;49.190;8.122;2023-03-01T08:34:04;4.10;99.90
30186;DHT22;31152;49.190;8.122;2023-03-01T08:36:35;4.20;99.90
30186;DHT22;31152;49.190;8.122;2023-03-01T08:39:02;4.30;99.90
30186;DHT22;31152;49.190;8.122;2023-03-01T08:41:32;4.40;99.90
30186;DHT22;31152;49.190;8.122;2023-03-01T08:43:58;4.60;99.60
30186;DHT22;31152;49.190;8.122;2023-03-01T08:46:30;4.70;99.10
30186;DHT22;31152;49.190;8.122;2023-03-01T08:48:58;4.80;98.60
30186;DHT22;31152;49.190;8.122;2023-03-01T08:51:25;4.90;98.20
30186;DHT22;31152;49.190;8.122;2023-03-01T08:53:52;5.00;97.90
30186;DHT22;31152;49.190;8.122;2023-03-01T08:56:19;5.10;97.60
30186;DHT22;31152;49.190;8.122;2023-03-01T08:58:48;5.30;97.10
30186;DHT22;31152;49.190;8.122;2023-03-01T09:01:17;5.40;96.80
30186;DHT22;31152;49.190;8.122;2023-03-01T09:03:47;5.60;96.70
30186;DHT22;31152;49.190;8.122;2023-03-01T09:06:15;5.80;96.80
30186;DHT22;31152;49.190;8.122;2023-03-01T09:08:46;6.00;96.00
30186;DHT22;31152;49.190;8.122;2023-03-01T09:11:17;6.20;95.60
30186;DHT22;31152;49.190;8.122;2023-03-01T09:13:48;6.30;95.00
30186;DHT22;31152;49.190;8.122;2023-03-01T09:16:17;6.50;94.80
30186;DHT22;31152;49.190;8.122;2023-03-01T09:18:48;6.60;94.20
30186;DHT22;31152;49.190;8.122;2023-03-01T09:21:16;6.70;94.10
30186;DHT22;31152;49.190;8.122;2023-03-01T09:23:50;6.80;93.40
30186;DHT22;31152;49.190;8.122;2023-03-01T09:26:19;7.00;92.80
30186;DHT22;31152;49.190;8.122;2023-03-01T09:28:49;7.10;92.30
30186;DHT22;31152;49.190;8.122;2023-03-01T09:31:18;7.20;92.20
30186;DHT22;31152;49.190;8.122;2023-03-01T09:33:50;7.40;91.60
30186;DHT22;31152;49.190;8.122;2023-03-01T09:36:19;7.60;90.90
30186;DHT22;31152;49.190;8.122;2023-03-01T09:38:48;7.70;90.00
30186;DHT22;31152;49.190;8.122;2023-03-01T09:44:18;7.80;87.90
30186;DHT22;31152;49.190;8.122;2023-03-01T09:46:45;8.00;87.50
30186;DHT22;31152;49.190;8.122;2023-03-01T09:49:41;8.20;86.60
30186;DHT22;31152;49.190;8.122;2023-03-01T09:52:21;8.30;85.00
30186;DHT22;31152;49.190;8.122;2023-03-01T09:54:54;8.50;83.50
30186;DHT22;31152;49.190;8.122;2023-03-01T10:05:35;9.20;80.90
30186;DHT22;31152;49.190;8.122;2023-03-01T10:11:00;9.90;78.90
30186;DHT22;31152;49.190;8.122;2023-03-01T10:16:01;10.60;75.10
30186;DHT22;31152;49.190;8.122;2023-03-01T10:18:31;11.30;72.50
30186;DHT22;31152;49.190;8.122;2023-03-01T10:21:02;12.10;70.00
30186;DHT22;31152;49.190;8.122;2023-03-01T10:23:31;12.90;67.00
30186;DHT22;31152;49.190;8.122;2023-03-01T10:26:34;13.60;63.10
30186;DHT22;31152;49.190;8.122;2023-03-01T10:29:11;14.20;59.10
30186;DHT22;31152;49.190;8.122;2023-03-01T10:31:51;14.70;57.80
30186;DHT22;31152;49.190;8.122;2023-03-01T10:36:51;15.50;54.20
30186;DHT22;31152;49.190;8.122;2023-03-01T10:39:25;15.90;53.40
30186;DHT22;31152;49.190;8.122;2023-03-01T10:42:01;16.10;51.30
30186;DHT22;31152;49.190;8.122;2023-03-01T10:47:24;16.40;49.00
30186;DHT22;31152;49.190;8.122;2023-03-01T10:52:26;16.20;47.80
30186;DHT22;31152;49.190;8.122;2023-03-01T10:55:03;16.30;48.70
30186;DHT22;31152;49.190;8.122;2023-03-01T10:57:34;16.30;48.00
30186;DHT22;31152;49.190;8.122;2023-03-01T11:00:26;16.40;47.90
30186;DHT22;31152;49.190;8.122;2023-03-01T11:03:10;16.80;47.70
30186;DHT22;31152;49.190;8.122;2023-03-01T11:08:37;16.90;47.20
30186;DHT22;31152;49.190;8.122;2023-03-01T11:11:20;17.20;46.80
30186;DHT22;31152;49.190;8.122;2023-03-01T11:16:31;17.70;44.80
30186;DHT22;31152;49.190;8.122;2023-03-01T11:19:01;17.90;44.30
30186;DHT22;31152;49.190;8.122;2023-03-01T11:21:33;18.10;44.30
30186;DHT22;31152;49.190;8.122;2023-03-01T11:24:05;18.20;43.50
30186;DHT22;31152;49.190;8.122;2023-03-01T11:26:37;18.40;43.90
30186;DHT22;31152;49.190;8.122;2023-03-01T11:29:12;18.60;43.50
30186;DHT22;31152;49.190;8.122;2023-03-01T11:31:45;18.80;42.40
30186;DHT22;31152;49.190;8.122;2023-03-01T11:34:53;18.80;41.80
30186;DHT22;31152;49.190;8.122;2023-03-01T11:40:10;18.50;42.30
30186;DHT22;31152;49.190;8.122;2023-03-01T11:42:50;18.60;42.90
30186;DHT22;31152;49.190;8.122;2023-03-01T11:45:22;18.90;42.70
30186;DHT22;31152;49.190;8.122;2023-03-01T11:48:02;19.10;41.80
30186;DHT22;31152;49.190;8.122;2023-03-01T11:50:47;19.10;41.80
30186;DHT22;31152;49.190;8.122;2023-03-01T11:56:29;19.60;40.90
30186;DHT22;31152;49.190;8.122;2023-03-01T12:04:58;20.00;40.20
30186;DHT22;31152;49.190;8.122;2023-03-01T12:07:52;20.30;40.00
30186;DHT22;31152;49.190;8.122;2023-03-01T12:15:55;20.80;38.70
30186;DHT22;31152;49.190;8.122;2023-03-01T12:33:14;21.20;36.30
30186;DHT22;31152;49.190;8.122;2023-03-01T12:41:13;20.70;36.70
30186;DHT22;31152;49.190;8.122;2023-03-01T12:44:28;20.90;36.80
30186;DHT22;31152;49.190;8.122;2023-03-01T12:47:22;21.00;36.30
30186;DHT22;31152;49.190;8.122;2023-03-01T12:50:00;21.20;36.80
30186;DHT22;31152;49.190;8.122;2023-03-01T12:52:41;20.70;36.40
30186;DHT22;31152;49.190;8.122;2023-03-01T12:55:37;20.90;35.90
30186;DHT22;31152;49.190;8.122;2023-03-01T13:14:53;21.50;35.40
30186;DHT22;31152;49.190;8.122;2023-03-01T13:17:41;21.80;35.10
30186;DHT22;31152;49.190;8.122;2023-03-01T13:20:17;21.50;35.60
30186;DHT22;31152;49.190;8.122;2023-03-01T13:22:46;21.60;35.40
30186;DHT22;31152;49.190;8.122;2023-03-01T13:25:20;21.70;35.30
30186;DHT22;31152;49.190;8.122;2023-03-01T13:27:51;21.70;34.60
30186;DHT22;31152;49.190;8.122;2023-03-01T13:30:42;21.70;34.70
30186;DHT22;31152;49.190;8.122;2023-03-01T13:36:00;21.60;35.00
30186;DHT22;31152;49.190;8.122;2023-03-01T13:49:59;21.10;35.80
30186;DHT22;31152;49.190;8.122;2023-03-01T13:52:41;21.00;35.50
30186;DHT22;31152;49.190;8.122;2023-03-01T13:57:43;20.40;35.70
30186;DHT22;31152;49.190;8.122;2023-03-01T14:00:35;20.60;36.40
30186;DHT22;31152;49.190;8.122;2023-03-01T14:03:23;20.80;35.70
30186;DHT22;31152;49.190;8.122;2023-03-01T14:06:09;20.90;35.60
30186;DHT22;31152;49.190;8.122;2023-03-01T14:08:44;20.90;35.40
30186;DHT22;31152;49.190;8.122;2023-03-01T14:14:38;20.90;35.10
30186;DHT22;31152;49.190;8.122;2023-03-01T14:17:44;20.80;36.20
30186;DHT22;31152;49.190;8.122;2023-03-01T14:20:27;21.00;35.50
30186;DHT22;31152;49.190;8.122;2023-03-01T14:22:57;21.10;35.10
30186;DHT22;31152;49.190;8.122;2023-03-01T14:25:30;21.10;35.30
30186;DHT22;31152;49.190;8.122;2023-03-01T14:30:51;21.10;34.90
30186;DHT22;31152;49.190;8.122;2023-03-01T14:33:30;21.00;34.80
30186;DHT22;31152;49.190;8.122;2023-03-01T14:38:42;20.80;35.40
30186;DHT22;31152;49.190;8.122;2023-03-01T14:41:13;20.60;35.50
30186;DHT22;31152;49.190;8.122;2023-03-01T14:43:45;20.60;36.20
30186;DHT22;31152;49.190;8.122;2023-03-01T14:46:23;20.40;35.40
30186;DHT22;31152;49.190;8.122;2023-03-01T14:48:53;20.00;35.90
30186;DHT22;31152;49.190;8.122;2023-03-01T14:51:23;19.60;36.80
30186;DHT22;31152;49.190;8.122;2023-03-01T14:53:53;19.40;37.30
30186;DHT22;31152;49.190;8.122;2023-03-01T14:56:20;19.10;37.50
30186;DHT22;31152;49.190;8.122;2023-03-01T14:58:52;18.80;37.90
30186;DHT22;31152;49.190;8.122;2023-03-01T15:01:19;18.40;38.30
30186;DHT22;31152;49.190;8.122;2023-03-01T15:03:48;18.10;38.80
30186;DHT22;31152;49.190;8.122;2023-03-01T15:06:18;17.80;39.50
30186;DHT22;31152;49.190;8.122;2023-03-01T15:08:49;17.40;39.90
30186;DHT22;31152;49.190;8.122;2023-03-01T15:11:27;17.20;40.30
30186;DHT22;31152;49.190;8.122;2023-03-01T15:13:54;17.00;40.90
30186;DHT22;31152;49.190;8.122;2023-03-01T15:16:22;17.10;40.90
30186;DHT22;31152;49.190;8.122;2023-03-01T15:19:00;17.50;40.40
30186;DHT22;31152;49.190;8.122;2023-03-01T15:21:35;17.90;40.30
30186;DHT22;31152;49.190;8.122;2023-03-01T15:24:08;18.00;39.90
30186;DHT22;31152;49.190;8.122;2023-03-01T15:26:59;17.70;40.00
30186;DHT22;31152;49.190;8.122;2023-03-01T15:29:36;17.20;40.50
30186;DHT22;31152;49.190;8.122;2023-03-01T15:32:32;16.80;41.40
30186;DHT22;31152;49.190;8.122;2023-03-01T15:35:01;16.50;41.70
30186;DHT22;31152;49.190;8.122;2023-03-01T15:37:48;16.30;42.30
30186;DHT22;31152;49.190;8.122;2023-03-01T15:40:24;16.00;42.80
30186;DHT22;31152;49.190;8.122;2023-03-01T15:43:02;15.70;43.00
30186;DHT22;31152;49.190;8.122;2023-03-01T15:45:31;15.50;43.40
30186;DHT22;31152;49.190;8.122;2023-03-01T15:48:17;15.30;43.70
30186;DHT22;31152;49.190;8.122;2023-03-01T15:50:44;15.20;44.00
30186;DHT22;31152;49.190;8.122;2023-03-01T15:53:20;15.00;44.30
30186;DHT22;31152;49.190;8.122;2023-03-01T15:55:47;14.80;44.30
30186;DHT22;31152;49.190;8.122;2023-03-01T15:58:19;14.70;44.80
30186;DHT22;31152;49.190;8.122;2023-03-01T16:00:48;14.60;45.20
30186;DHT22;31152;49.190;8.122;2023-03-01T16:03:26;14.60;45.40
30186;DHT22;31152;49.190;8.122;2023-03-01T16:05:53;14.40;45.30
30186;DHT22;31152;49.190;8.122;2023-03-01T16:08:23;14.50;45.60
30186;DHT22;31152;49.190;8.122;2023-03-01T16:10:50;14.50;45.50
30186;DHT22;31152;49.190;8.122;2023-03-01T16:13:17;14.70;45.20
30186;DHT22;31152;49.190;8.122;2023-03-01T16:15:44;14.90;45.10
30186;DHT22;31152;49.190;8.122;2023-03-01T16:18:13;15.20;45.00
30186;DHT22;31152;49.190;8.122;2023-03-01T16:20:41;15.40;44.70
30186;DHT22;31152;49.190;8.122;2023-03-01T16:23:10;15.60;44.30
30186;DHT22;31152;49.190;8.122;2023-03-01T16:25:38;15.90;43.70
30186;DHT22;31152;49.190;8.122;2023-03-01T16:28:05;16.00;43.40
30186;DHT22;31152;49.190;8.122;2023-03-01T16:30:39;16.10;43.30
30186;DHT22;31152;49.190;8.122;2023-03-01T16:33:06;16.10;43.00
30186;DHT22;31152;49.190;8.122;2023-03-01T16:35:54;16.00;43.00
30186;DHT22;31152;49.190;8.122;2023-03-01T16:38:20;15.80;43.30
30186;DHT22;31152;49.190;8.122;2023-03-01T16:40:51;15.60;43.50
30186;DHT22;31152;49.190;8.122;2023-03-01T16:43:20;15.30;44.00
30186;DHT22;31152;49.190;8.122;2023-03-01T16:45:50;14.60;44.80
30186;DHT22;31152;49.190;8.122;2023-03-01T16:48:17;13.90;46.10
30186;DHT22;31152;49.190;8.122;2023-03-01T16:50:44;13.20;47.60
30186;DHT22;31152;49.190;8.122;2023-03-01T16:53:11;12.60;48.80
30186;DHT22;31152;49.190;8.122;2023-03-01T16:55:37;12.20;49.90
30186;DHT22;31152;49.190;8.122;2023-03-01T16:58:11;11.80;50.90
30186;DHT22;31152;49.190;8.122;2023-03-01T17:00:40;11.40;51.70
30186;DHT22;31152;49.190;8.122;2023-03-01T17:03:07;11.10;52.40
30186;DHT22;31152;49.190;8.122;2023-03-01T17:05:34;10.90;53.00
30186;DHT22;31152;49.190;8.122;2023-03-01T17:08:01;10.70;53.70
30186;DHT22;31152;49.190;8.122;2023-03-01T17:10:27;10.40;54.40
30186;DHT22;31152;49.190;8.122;2023-03-01T17:12:54;10.20;54.90
30186;DHT22;31152;49.190;8.122;2023-03-01T17:15:21;10.10;55.50
30186;DHT22;31152;49.190;8.122;2023-03-01T17:17:50;9.90;56.00
30186;DHT22;31152;49.190;8.122;2023-03-01T17:20:17;9.80;56.40
30186;DHT22;31152;49.190;8.122;2023-03-01T17:22:44;9.60;57.00
30186;DHT22;31152;49.190;8.122;2023-03-01T17:25:11;9.40;57.30
30186;DHT22;31152;49.190;8.122;2023-03-01T17:27:39;9.30;57.60
30186;DHT22;31152;49.190;8.122;2023-03-01T17:30:10;9.20;58.00
30186;DHT22;31152;49.190;8.122;2023-03-01T17:32:40;9.20;58.40
30186;DHT22;31152;49.190;8.122;2023-03-01T17:35:09;9.00;58.70
30186;DHT22;31152;49.190;8.122;2023-03-01T17:37:38;8.90;59.10
30186;DHT22;31152;49.190;8.122;2023-03-01T17:40:06;8.80;59.40
30186;DHT22;31152;49.190;8.122;2023-03-01T17:42:35;8.70;59.60
30186;DHT22;31152;49.190;8.122;2023-03-01T17:45:02;8.60;60.00
30186;DHT22;31152;49.190;8.122;2023-03-01T17:47:29;8.50;60.30
30186;DHT22;31152;49.190;8.122;2023-03-01T17:49:55;8.50;60.70
30186;DHT22;31152;49.190;8.122;2023-03-01T17:52:25;8.40;60.80
30186;DHT22;31152;49.190;8.122;2023-03-01T17:54:51;8.30;61.10
30186;DHT22;31152;49.190;8.122;2023-03-01T17:57:23;8.30;61.40
30186;DHT22;31152;49.190;8.122;2023-03-01T17:59:52;8.30;61.80
30186;DHT22;31152;49.190;8.122;2023-03-01T18:02:18;8.10;62.30